sensor_id;sensor_type;location;lat;lon;timestamp;P1;durP1;ratioP1;P2;durP2;ratioP2
4742;SDS011;24293;48.154;7.748;2024-02-15T00:00:39;18.53;;;3.17;;
4742;SDS011;24293;48.154;7.748;2024-02-15T00:03:09;12.10;;;3.60;;
4742;SDS011;24293;48.154;7.748;2024-02-15T00:05:38;6.73;;;3.50;;
4742;SDS011;24293;48.154;7.748;2024-02-15T00:08:05;9.73;;;3.30;;
4742;SDS011;24293;48.154;7.748;2024-02-15T00:10:31;6.37;;;3.27;;
4742;SDS011;24293;48.154;7.748;2024-02-15T00:12:59;9.93;;;3.30;;
4742;SDS011;24293;48.154;7.748;2024-02-15T00:15:25;11.53;;;3.23;;
4742;SDS011;24293;48.154;7.748;2024-02-15T00:17:52;6.57;;;3.03;;
4742;SDS011;24293;48.154;7.748;2024-02-15T00:20:20;7.93;;;3.33;;
4742;SDS011;24293;48.154;7.748;2024-02-15T00:22:46;6.00;;;2.90;;
4742;SDS011;24293;48.154;7.748;2024-02-15T00:25:15;5.70;;;3.27;;
4742;SDS011;24293;48.154;7.748;2024-02-15T00:27:42;9.80;;;3.87;;
4742;SDS011;24293;48.154;7.748;2024-02-15T00:30:08;7.80;;;3.57;;
4742;SDS011;24293;48.154;7.748;2024-02-15T00:32:35;8.63;;;3.30;;
4742;SDS011;24293;48.154;7.748;2024-02-15T00:35:06;8.30;;;3.20;;
4742;SDS011;24293;48.154;7.748;2024-02-15T00:37:36;9.30;;;2.90;;
4742;SDS011;24293;48.154;7.748;2024-02-15T00:40:03;5.90;;;3.00;;
4742;SDS011;24293;48.154;7.748;2024-02-15T00:42:30;13.80;;;2.93;;
4742;SDS011;24293;48.154;7.748;2024-02-15T00:44:57;8.03;;;3.30;;
4742;SDS011;24293;48.154;7.748;2024-02-15T00:47:24;6.63;;;3.07;;
4742;SDS011;24293;48.154;7.748;2024-02-15T00:49:50;9.37;;;3.00;;
4742;SDS011;24293;48.154;7.748;2024-02-15T00:52:19;8.63;;;2.40;;
4742;SDS011;24293;48.154;7.748;2024-02-15T00:54:47;5.50;;;3.00;;
4742;SDS011;24293;48.154;7.748;2024-02-15T00:57:14;7.20;;;2.40;;
4742;SDS011;24293;48.154;7.748;2024-02-15T00:59:40;6.87;;;2.83;;
4742;SDS011;24293;48.154;7.748;2024-02-15T01:02:07;5.90;;;3.17;;
4742;SDS011;24293;48.154;7.748;2024-02-15T01:04:33;5.80;;;2.93;;
4742;SDS011;24293;48.154;7.748;2024-02-15T01:07:00;8.33;;;2.53;;
4742;SDS011;24293;48.154;7.748;2024-02-15T01:09:26;7.63;;;3.23;;
4742;SDS011;24293;48.154;7.748;2024-02-15T01:11:54;6.67;;;2.90;;
4742;SDS011;24293;48.154;7.748;2024-02-15T01:14:20;5.03;;;2.57;;
4742;SDS011;24293;48.154;7.748;2024-02-15T01:16:47;6.40;;;3.17;;
4742;SDS011;24293;48.154;7.748;2024-02-15T01:19:13;7.50;;;3.30;;
4742;SDS011;24293;48.154;7.748;2024-02-15T01:21:40;7.20;;;3.37;;
4742;SDS011;24293;48.154;7.748;2024-02-15T01:24:09;6.67;;;3.30;;
4742;SDS011;24293;48.154;7.748;2024-02-15T01:26:35;5.30;;;3.00;;
4742;SDS011;24293;48.154;7.748;2024-02-15T01:29:03;6.73;;;3.30;;
4742;SDS011;24293;48.154;7.748;2024-02-15T01:31:29;6.33;;;3.13;;
4742;SDS011;24293;48.154;7.748;2024-02-15T01:33:56;7.03;;;2.90;;
4742;SDS011;24293;48.154;7.748;2024-02-15T01:36:23;5.90;;;2.90;;
4742;SDS011;24293;48.154;7.748;2024-02-15T01:38:49;8.57;;;3.60;;
4742;SDS011;24293;48.154;7.748;2024-02-15T01:41:16;8.30;;;3.60;;
4742;SDS011;24293;48.154;7.748;2024-02-15T01:43:43;6.40;;;3.13;;
4742;SDS011;24293;48.154;7.748;2024-02-15T01:46:11;7.90;;;2.80;;
4742;SDS011;24293;48.154;7.748;2024-02-15T01:48:37;7.77;;;3.00;;
4742;SDS011;24293;48.154;7.748;2024-02-15T01:51:06;8.20;;;3.00;;
4742;SDS011;24293;48.154;7.748;2024-02-15T01:53:33;8.73;;;3.10;;
4742;SDS011;24293;48.154;7.748;2024-02-15T01:55:59;6.70;;;3.00;;
4742;SDS011;24293;48.154;7.748;2024-02-15T01:58:26;7.30;;;3.30;;
4742;SDS011;24293;48.154;7.748;2024-02-15T02:00:53;6.00;;;3.00;;
4742;SDS011;24293;48.154;7.748;2024-02-15T02:03:21;8.17;;;3.23;;
4742;SDS011;24293;48.154;7.748;2024-02-15T02:05:48;6.90;;;2.73;;
4742;SDS011;24293;48.154;7.748;2024-02-15T02:08:14;7.10;;;2.80;;
4742;SDS011;24293;48.154;7.748;2024-02-15T02:10:41;7.33;;;3.00;;
4742;SDS011;24293;48.154;7.748;2024-02-15T02:13:07;6.67;;;3.40;;
4742;SDS011;24293;48.154;7.748;2024-02-15T02:15:34;5.50;;;3.20;;
4742;SDS011;24293;48.154;7.748;2024-02-15T02:18:02;13.53;;;3.40;;
4742;SDS011;24293;48.154;7.748;2024-02-15T02:20:33;8.20;;;4.33;;
4742;SDS011;24293;48.154;7.748;2024-02-15T02:23:05;10.40;;;3.57;;
4742;SDS011;24293;48.154;7.748;2024-02-15T02:25:34;8.97;;;3.30;;
4742;SDS011;24293;48.154;7.748;2024-02-15T02:28:01;6.23;;;3.30;;
4742;SDS011;24293;48.154;7.748;2024-02-15T02:30:27;6.27;;;3.43;;
4742;SDS011;24293;48.154;7.748;2024-02-15T02:32:54;9.07;;;3.83;;
4742;SDS011;24293;48.154;7.748;2024-02-15T02:35:22;9.00;;;4.40;;
4742;SDS011;24293;48.154;7.748;2024-02-15T02:37:48;12.40;;;4.47;;
4742;SDS011;24293;48.154;7.748;2024-02-15T02:40:15;5.50;;;3.30;;
4742;SDS011;24293;48.154;7.748;2024-02-15T02:42:49;6.80;;;3.53;;
4742;SDS011;24293;48.154;7.748;2024-02-15T02:45:16;8.70;;;4.27;;
4742;SDS011;24293;48.154;7.748;2024-02-15T02:47:44;7.70;;;3.90;;
4742;SDS011;24293;48.154;7.748;2024-02-15T02:50:12;9.53;;;3.73;;
4742;SDS011;24293;48.154;7.748;2024-02-15T02:52:38;9.27;;;4.73;;
4742;SDS011;24293;48.154;7.748;2024-02-15T02:55:05;12.00;;;3.23;;
4742;SDS011;24293;48.154;7.748;2024-02-15T02:57:33;9.23;;;4.13;;
4742;SDS011;24293;48.154;7.748;2024-02-15T03:00:01;6.93;;;3.40;;
4742;SDS011;24293;48.154;7.748;2024-02-15T03:02:29;7.50;;;3.97;;
4742;SDS011;24293;48.154;7.748;2024-02-15T03:04:56;7.57;;;3.60;;
4742;SDS011;24293;48.154;7.748;2024-02-15T03:07:25;7.37;;;3.90;;
4742;SDS011;24293;48.154;7.748;2024-02-15T03:09:51;11.90;;;4.70;;
4742;SDS011;24293;48.154;7.748;2024-02-15T03:12:18;7.10;;;3.87;;
4742;SDS011;24293;48.154;7.748;2024-02-15T03:14:44;8.10;;;3.63;;
4742;SDS011;24293;48.154;7.748;2024-02-15T03:17:12;8.13;;;3.97;;
4742;SDS011;24293;48.154;7.748;2024-02-15T03:19:39;8.07;;;4.60;;
4742;SDS011;24293;48.154;7.748;2024-02-15T03:22:06;7.43;;;4.10;;
4742;SDS011;24293;48.154;7.748;2024-02-15T03:24:32;7.80;;;3.87;;
4742;SDS011;24293;48.154;7.748;2024-02-15T03:26:59;10.30;;;4.20;;
4742;SDS011;24293;48.154;7.748;2024-02-15T03:29:25;11.23;;;4.90;;
4742;SDS011;24293;48.154;7.748;2024-02-15T03:31:52;10.27;;;5.27;;
4742;SDS011;24293;48.154;7.748;2024-02-15T03:34:21;8.80;;;4.67;;
4742;SDS011;24293;48.154;7.748;2024-02-15T03:36:49;10.70;;;5.10;;
4742;SDS011;24293;48.154;7.748;2024-02-15T03:39:19;8.37;;;4.77;;
4742;SDS011;24293;48.154;7.748;2024-02-15T03:41:45;9.30;;;5.00;;
4742;SDS011;24293;48.154;7.748;2024-02-15T03:44:11;11.57;;;5.13;;
4742;SDS011;24293;48.154;7.748;2024-02-15T03:46:38;10.07;;;5.03;;
4742;SDS011;24293;48.154;7.748;2024-02-15T03:49:04;11.13;;;4.50;;
4742;SDS011;24293;48.154;7.748;2024-02-15T03:51:34;8.40;;;4.77;;
4742;SDS011;24293;48.154;7.748;2024-02-15T03:54:01;9.00;;;5.17;;
4742;SDS011;24293;48.154;7.748;2024-02-15T03:56:29;12.97;;;6.50;;
4742;SDS011;24293;48.154;7.748;2024-02-15T03:58:57;14.43;;;7.47;;
4742;SDS011;24293;48.154;7.748;2024-02-15T04:01:24;14.57;;;7.67;;
4742;SDS011;24293;48.154;7.748;2024-02-15T04:03:52;15.50;;;7.37;;
4742;SDS011;24293;48.154;7.748;2024-02-15T04:06:18;15.30;;;6.80;;
4742;SDS011;24293;48.154;7.748;2024-02-15T04:08:46;13.90;;;7.87;;
4742;SDS011;24293;48.154;7.748;2024-02-15T04:11:14;11.23;;;6.37;;
4742;SDS011;24293;48.154;7.748;2024-02-15T04:13:41;14.40;;;6.20;;
4742;SDS011;24293;48.154;7.748;2024-02-15T04:16:08;11.00;;;6.07;;
4742;SDS011;24293;48.154;7.748;2024-02-15T04:18:35;13.53;;;5.87;;
4742;SDS011;24293;48.154;7.748;2024-02-15T04:21:03;11.43;;;5.87;;
4742;SDS011;24293;48.154;7.748;2024-02-15T04:23:31;11.03;;;5.53;;
4742;SDS011;24293;48.154;7.748;2024-02-15T04:25:59;11.50;;;5.83;;
4742;SDS011;24293;48.154;7.748;2024-02-15T04:28:25;10.90;;;5.70;;
4742;SDS011;24293;48.154;7.748;2024-02-15T04:30:52;10.67;;;5.63;;
4742;SDS011;24293;48.154;7.748;2024-02-15T04:33:19;9.87;;;5.00;;
4742;SDS011;24293;48.154;7.748;2024-02-15T04:35:45;10.13;;;6.00;;
4742;SDS011;24293;48.154;7.748;2024-02-15T04:38:14;9.40;;;5.57;;
4742;SDS011;24293;48.154;7.748;2024-02-15T04:40:40;10.60;;;5.83;;
4742;SDS011;24293;48.154;7.748;2024-02-15T04:43:08;11.83;;;5.60;;
4742;SDS011;24293;48.154;7.748;2024-02-15T04:45:34;10.60;;;6.53;;
4742;SDS011;24293;48.154;7.748;2024-02-15T04:48:01;7.93;;;5.30;;
4742;SDS011;24293;48.154;7.748;2024-02-15T04:50:28;7.60;;;5.03;;
4742;SDS011;24293;48.154;7.748;2024-02-15T04:52:55;10.60;;;5.70;;
4742;SDS011;24293;48.154;7.748;2024-02-15T04:55:22;6.80;;;5.57;;
4742;SDS011;24293;48.154;7.748;2024-02-15T04:57:48;8.23;;;5.03;;
4742;SDS011;24293;48.154;7.748;2024-02-15T05:00:21;7.53;;;5.00;;
4742;SDS011;24293;48.154;7.748;2024-02-15T05:02:47;8.40;;;5.23;;
4742;SDS011;24293;48.154;7.748;2024-02-15T05:05:14;9.80;;;5.70;;
4742;SDS011;24293;48.154;7.748;2024-02-15T05:07:41;10.60;;;5.60;;
4742;SDS011;24293;48.154;7.748;2024-02-15T05:10:08;8.07;;;5.27;;
4742;SDS011;24293;48.154;7.748;2024-02-15T05:12:34;8.27;;;5.30;;
4742;SDS011;24293;48.154;7.748;2024-02-15T05:15:01;8.83;;;5.23;;
4742;SDS011;24293;48.154;7.748;2024-02-15T05:17:36;10.60;;;5.00;;
4742;SDS011;24293;48.154;7.748;2024-02-15T05:20:03;8.63;;;5.37;;
4742;SDS011;24293;48.154;7.748;2024-02-15T05:22:35;9.00;;;5.17;;
4742;SDS011;24293;48.154;7.748;2024-02-15T05:25:04;10.80;;;5.03;;
4742;SDS011;24293;48.154;7.748;2024-02-15T05:27:30;9.30;;;5.10;;
4742;SDS011;24293;48.154;7.748;2024-02-15T05:29:57;9.83;;;5.47;;
4742;SDS011;24293;48.154;7.748;2024-02-15T05:32:23;8.33;;;4.70;;
4742;SDS011;24293;48.154;7.748;2024-02-15T05:34:52;8.83;;;5.00;;
4742;SDS011;24293;48.154;7.748;2024-02-15T05:37:20;6.13;;;4.07;;
4742;SDS011;24293;48.154;7.748;2024-02-15T05:39:46;8.90;;;5.13;;
4742;SDS011;24293;48.154;7.748;2024-02-15T05:42:17;9.80;;;5.53;;
4742;SDS011;24293;48.154;7.748;2024-02-15T05:44:44;10.50;;;5.43;;
4742;SDS011;24293;48.154;7.748;2024-02-15T05:47:11;13.80;;;6.17;;
4742;SDS011;24293;48.154;7.748;2024-02-15T05:49:37;14.03;;;9.50;;
4742;SDS011;24293;48.154;7.748;2024-02-15T05:52:05;14.93;;;7.67;;
4742;SDS011;24293;48.154;7.748;2024-02-15T05:54:36;11.47;;;5.33;;
4742;SDS011;24293;48.154;7.748;2024-02-15T05:57:03;11.13;;;5.70;;
4742;SDS011;24293;48.154;7.748;2024-02-15T05:59:30;8.90;;;5.27;;
4742;SDS011;24293;48.154;7.748;2024-02-15T06:01:56;8.80;;;5.40;;
4742;SDS011;24293;48.154;7.748;2024-02-15T06:04:23;14.50;;;7.60;;
4742;SDS011;24293;48.154;7.748;2024-02-15T06:06:51;10.30;;;6.27;;
4742;SDS011;24293;48.154;7.748;2024-02-15T06:09:25;12.83;;;6.60;;
4742;SDS011;24293;48.154;7.748;2024-02-15T06:11:53;10.27;;;6.33;;
4742;SDS011;24293;48.154;7.748;2024-02-15T06:14:20;10.93;;;6.47;;
4742;SDS011;24293;48.154;7.748;2024-02-15T06:16:47;9.77;;;6.57;;
4742;SDS011;24293;48.154;7.748;2024-02-15T06:19:13;15.43;;;5.20;;
4742;SDS011;24293;48.154;7.748;2024-02-15T06:21:40;9.43;;;5.93;;
4742;SDS011;24293;48.154;7.748;2024-02-15T06:24:07;14.63;;;6.10;;
4742;SDS011;24293;48.154;7.748;2024-02-15T06:26:35;9.57;;;5.13;;
4742;SDS011;24293;48.154;7.748;2024-02-15T06:29:02;9.17;;;5.73;;
4742;SDS011;24293;48.154;7.748;2024-02-15T06:31:46;9.10;;;6.17;;
4742;SDS011;24293;48.154;7.748;2024-02-15T06:34:30;10.83;;;5.90;;
4742;SDS011;24293;48.154;7.748;2024-02-15T06:40:13;10.30;;;5.33;;
4742;SDS011;24293;48.154;7.748;2024-02-15T06:42:41;9.27;;;5.30;;
4742;SDS011;24293;48.154;7.748;2024-02-15T06:45:07;10.40;;;5.80;;
4742;SDS011;24293;48.154;7.748;2024-02-15T06:47:35;10.90;;;5.80;;
4742;SDS011;24293;48.154;7.748;2024-02-15T06:50:01;10.50;;;5.33;;
4742;SDS011;24293;48.154;7.748;2024-02-15T06:52:28;11.70;;;5.07;;
4742;SDS011;24293;48.154;7.748;2024-02-15T06:54:54;15.20;;;7.97;;
4742;SDS011;24293;48.154;7.748;2024-02-15T06:57:21;9.37;;;5.33;;
4742;SDS011;24293;48.154;7.748;2024-02-15T06:59:49;11.27;;;5.90;;
4742;SDS011;24293;48.154;7.748;2024-02-15T07:02:16;12.10;;;5.80;;
4742;SDS011;24293;48.154;7.748;2024-02-15T07:04:44;15.63;;;5.70;;
4742;SDS011;24293;48.154;7.748;2024-02-15T07:07:11;10.93;;;5.43;;
4742;SDS011;24293;48.154;7.748;2024-02-15T07:09:39;10.73;;;5.33;;
4742;SDS011;24293;48.154;7.748;2024-02-15T07:12:06;11.60;;;5.93;;
4742;SDS011;24293;48.154;7.748;2024-02-15T07:14:32;9.40;;;5.63;;
4742;SDS011;24293;48.154;7.748;2024-02-15T07:17:01;15.17;;;6.40;;
4742;SDS011;24293;48.154;7.748;2024-02-15T07:19:27;12.90;;;6.47;;
4742;SDS011;24293;48.154;7.748;2024-02-15T07:21:53;12.00;;;5.80;;
4742;SDS011;24293;48.154;7.748;2024-02-15T07:24:21;7.73;;;4.90;;
4742;SDS011;24293;48.154;7.748;2024-02-15T07:26:48;16.17;;;6.53;;
4742;SDS011;24293;48.154;7.748;2024-02-15T07:29:17;11.30;;;6.80;;
4742;SDS011;24293;48.154;7.748;2024-02-15T07:31:45;44.17;;;19.87;;
4742;SDS011;24293;48.154;7.748;2024-02-15T07:34:13;40.43;;;16.50;;
4742;SDS011;24293;48.154;7.748;2024-02-15T07:36:39;15.00;;;8.00;;
4742;SDS011;24293;48.154;7.748;2024-02-15T07:39:07;23.43;;;9.37;;
4742;SDS011;24293;48.154;7.748;2024-02-15T07:41:37;42.83;;;17.80;;
4742;SDS011;24293;48.154;7.748;2024-02-15T07:44:03;24.13;;;9.40;;
4742;SDS011;24293;48.154;7.748;2024-02-15T07:46:30;12.93;;;6.97;;
4742;SDS011;24293;48.154;7.748;2024-02-15T07:48:57;15.23;;;6.90;;
4742;SDS011;24293;48.154;7.748;2024-02-15T07:51:25;23.10;;;8.10;;
4742;SDS011;24293;48.154;7.748;2024-02-15T07:53:53;13.43;;;8.43;;
4742;SDS011;24293;48.154;7.748;2024-02-15T07:56:20;11.67;;;7.80;;
4742;SDS011;24293;48.154;7.748;2024-02-15T07:58:47;14.57;;;7.53;;
4742;SDS011;24293;48.154;7.748;2024-02-15T08:01:17;19.30;;;10.83;;
4742;SDS011;24293;48.154;7.748;2024-02-15T08:03:45;13.70;;;7.67;;
4742;SDS011;24293;48.154;7.748;2024-02-15T08:06:12;20.17;;;11.13;;
4742;SDS011;24293;48.154;7.748;2024-02-15T08:08:42;18.87;;;11.20;;
4742;SDS011;24293;48.154;7.748;2024-02-15T08:11:11;15.43;;;9.37;;
4742;SDS011;24293;48.154;7.748;2024-02-15T08:13:40;15.80;;;6.90;;
4742;SDS011;24293;48.154;7.748;2024-02-15T08:16:08;11.47;;;7.00;;
4742;SDS011;24293;48.154;7.748;2024-02-15T08:18:34;11.37;;;7.30;;
4742;SDS011;24293;48.154;7.748;2024-02-15T08:21:02;11.20;;;7.20;;
4742;SDS011;24293;48.154;7.748;2024-02-15T08:23:29;11.97;;;7.57;;
4742;SDS011;24293;48.154;7.748;2024-02-15T08:25:58;12.10;;;7.23;;
4742;SDS011;24293;48.154;7.748;2024-02-15T08:28:25;15.27;;;7.30;;
4742;SDS011;24293;48.154;7.748;2024-02-15T08:30:53;10.97;;;7.50;;
4742;SDS011;24293;48.154;7.748;2024-02-15T08:33:21;11.30;;;6.40;;
4742;SDS011;24293;48.154;7.748;2024-02-15T08:35:48;11.33;;;5.73;;
4742;SDS011;24293;48.154;7.748;2024-02-15T08:38:15;9.00;;;5.70;;
4742;SDS011;24293;48.154;7.748;2024-02-15T08:40:42;13.00;;;6.50;;
4742;SDS011;24293;48.154;7.748;2024-02-15T08:43:12;12.30;;;5.60;;
4742;SDS011;24293;48.154;7.748;2024-02-15T08:45:38;9.63;;;5.53;;
4742;SDS011;24293;48.154;7.748;2024-02-15T08:48:05;11.43;;;6.20;;
4742;SDS011;24293;48.154;7.748;2024-02-15T08:50:31;10.43;;;5.07;;
4742;SDS011;24293;48.154;7.748;2024-02-15T08:52:58;14.43;;;5.53;;
4742;SDS011;24293;48.154;7.748;2024-02-15T08:55:24;16.83;;;5.63;;
4742;SDS011;24293;48.154;7.748;2024-02-15T08:57:52;15.43;;;5.90;;
4742;SDS011;24293;48.154;7.748;2024-02-15T09:00:20;10.43;;;6.73;;
4742;SDS011;24293;48.154;7.748;2024-02-15T09:02:47;10.80;;;5.70;;
4742;SDS011;24293;48.154;7.748;2024-02-15T09:05:14;17.13;;;6.80;;
4742;SDS011;24293;48.154;7.748;2024-02-15T09:07:40;10.80;;;6.80;;
4742;SDS011;24293;48.154;7.748;2024-02-15T09:10:08;12.00;;;6.40;;
4742;SDS011;24293;48.154;7.748;2024-02-15T09:12:35;12.43;;;6.50;;
4742;SDS011;24293;48.154;7.748;2024-02-15T09:15:05;13.03;;;7.03;;
4742;SDS011;24293;48.154;7.748;2024-02-15T09:17:33;14.10;;;7.47;;
4742;SDS011;24293;48.154;7.748;2024-02-15T09:20:05;9.30;;;6.37;;
4742;SDS011;24293;48.154;7.748;2024-02-15T09:22:32;12.27;;;6.13;;
4742;SDS011;24293;48.154;7.748;2024-02-15T09:24:58;12.30;;;6.70;;
4742;SDS011;24293;48.154;7.748;2024-02-15T09:27:25;12.43;;;5.90;;
4742;SDS011;24293;48.154;7.748;2024-02-15T09:29:52;10.53;;;6.20;;
4742;SDS011;24293;48.154;7.748;2024-02-15T09:32:20;13.20;;;6.03;;
4742;SDS011;24293;48.154;7.748;2024-02-15T09:34:48;10.20;;;6.50;;
4742;SDS011;24293;48.154;7.748;2024-02-15T09:37:15;10.20;;;6.40;;
4742;SDS011;24293;48.154;7.748;2024-02-15T09:39:42;8.40;;;6.00;;
4742;SDS011;24293;48.154;7.748;2024-02-15T09:42:08;14.60;;;6.70;;
4742;SDS011;24293;48.154;7.748;2024-02-15T09:44:35;10.40;;;6.30;;
4742;SDS011;24293;48.154;7.748;2024-02-15T09:47:02;15.70;;;6.43;;
4742;SDS011;24293;48.154;7.748;2024-02-15T09:49:30;12.40;;;6.70;;
4742;SDS011;24293;48.154;7.748;2024-02-15T09:52:00;14.37;;;6.13;;
4742;SDS011;24293;48.154;7.748;2024-02-15T09:54:28;12.07;;;6.53;;
4742;SDS011;24293;48.154;7.748;2024-02-15T09:56:55;11.00;;;6.00;;
4742;SDS011;24293;48.154;7.748;2024-02-15T09:59:23;7.60;;;5.13;;
4742;SDS011;24293;48.154;7.748;2024-02-15T10:01:49;9.70;;;5.70;;
4742;SDS011;24293;48.154;7.748;2024-02-15T10:04:17;9.50;;;6.00;;
4742;SDS011;24293;48.154;7.748;2024-02-15T10:06:43;11.80;;;5.10;;
4742;SDS011;24293;48.154;7.748;2024-02-15T10:09:30;8.20;;;5.10;;
4742;SDS011;24293;48.154;7.748;2024-02-15T10:11:57;14.03;;;5.60;;
4742;SDS011;24293;48.154;7.748;2024-02-15T10:14:24;11.20;;;5.13;;
4742;SDS011;24293;48.154;7.748;2024-02-15T10:16:51;11.27;;;5.53;;
4742;SDS011;24293;48.154;7.748;2024-02-15T10:19:19;11.60;;;4.97;;
4742;SDS011;24293;48.154;7.748;2024-02-15T10:21:50;14.03;;;5.07;;
4742;SDS011;24293;48.154;7.748;2024-02-15T10:24:17;15.87;;;5.27;;
4742;SDS011;24293;48.154;7.748;2024-02-15T10:26:46;8.20;;;4.50;;
4742;SDS011;24293;48.154;7.748;2024-02-15T10:29:14;8.80;;;4.40;;
4742;SDS011;24293;48.154;7.748;2024-02-15T10:31:52;8.80;;;4.20;;
4742;SDS011;24293;48.154;7.748;2024-02-15T10:34:19;10.30;;;4.77;;
4742;SDS011;24293;48.154;7.748;2024-02-15T10:36:46;9.03;;;4.83;;
4742;SDS011;24293;48.154;7.748;2024-02-15T10:39:13;9.10;;;5.00;;
4742;SDS011;24293;48.154;7.748;2024-02-15T10:41:43;10.53;;;4.90;;
4742;SDS011;24293;48.154;7.748;2024-02-15T10:44:11;11.00;;;4.87;;
4742;SDS011;24293;48.154;7.748;2024-02-15T10:46:38;7.80;;;4.70;;
4742;SDS011;24293;48.154;7.748;2024-02-15T10:49:05;7.90;;;4.77;;
4742;SDS011;24293;48.154;7.748;2024-02-15T10:51:31;7.43;;;4.47;;
4742;SDS011;24293;48.154;7.748;2024-02-15T10:54:02;9.67;;;4.57;;
4742;SDS011;24293;48.154;7.748;2024-02-15T10:56:33;9.83;;;4.60;;
4742;SDS011;24293;48.154;7.748;2024-02-15T10:59:04;12.87;;;5.77;;
4742;SDS011;24293;48.154;7.748;2024-02-15T11:01:38;11.50;;;5.23;;
4742;SDS011;24293;48.154;7.748;2024-02-15T11:04:07;9.97;;;5.50;;
4742;SDS011;24293;48.154;7.748;2024-02-15T11:06:35;9.83;;;4.80;;
4742;SDS011;24293;48.154;7.748;2024-02-15T11:09:01;14.50;;;5.43;;
4742;SDS011;24293;48.154;7.748;2024-02-15T11:11:31;9.83;;;5.30;;
4742;SDS011;24293;48.154;7.748;2024-02-15T11:16:45;9.37;;;4.50;;
4742;SDS011;24293;48.154;7.748;2024-02-15T11:19:15;13.40;;;5.00;;
4742;SDS011;24293;48.154;7.748;2024-02-15T11:22:01;8.20;;;4.27;;
4742;SDS011;24293;48.154;7.748;2024-02-15T11:24:29;8.70;;;4.57;;
4742;SDS011;24293;48.154;7.748;2024-02-15T11:26:57;9.43;;;3.73;;
4742;SDS011;24293;48.154;7.748;2024-02-15T11:32:24;7.63;;;4.03;;
4742;SDS011;24293;48.154;7.748;2024-02-15T11:35:03;8.73;;;3.87;;
4742;SDS011;24293;48.154;7.748;2024-02-15T11:43:45;16.93;;;9.13;;
4742;SDS011;24293;48.154;7.748;2024-02-15T11:46:14;8.30;;;5.20;;
4742;SDS011;24293;48.154;7.748;2024-02-15T11:48:44;6.93;;;3.80;;
4742;SDS011;24293;48.154;7.748;2024-02-15T11:51:11;7.63;;;4.03;;
4742;SDS011;24293;48.154;7.748;2024-02-15T11:53:57;8.10;;;3.50;;
4742;SDS011;24293;48.154;7.748;2024-02-15T11:56:24;14.63;;;4.20;;
4742;SDS011;24293;48.154;7.748;2024-02-15T11:59:01;9.23;;;4.30;;
4742;SDS011;24293;48.154;7.748;2024-02-15T12:01:27;11.73;;;4.50;;
4742;SDS011;24293;48.154;7.748;2024-02-15T12:04:13;11.17;;;4.20;;
4742;SDS011;24293;48.154;7.748;2024-02-15T12:06:57;13.23;;;3.80;;
4742;SDS011;24293;48.154;7.748;2024-02-15T12:09:42;7.50;;;3.40;;
4742;SDS011;24293;48.154;7.748;2024-02-15T12:12:29;10.33;;;4.33;;
4742;SDS011;24293;48.154;7.748;2024-02-15T12:15:13;8.70;;;4.20;;
4742;SDS011;24293;48.154;7.748;2024-02-15T12:20:57;7.43;;;4.10;;
4742;SDS011;24293;48.154;7.748;2024-02-15T12:23:24;7.83;;;3.80;;
4742;SDS011;24293;48.154;7.748;2024-02-15T12:25:51;14.93;;;6.37;;
4742;SDS011;24293;48.154;7.748;2024-02-15T12:28:18;11.80;;;6.30;;
4742;SDS011;24293;48.154;7.748;2024-02-15T12:30:44;8.50;;;4.30;;
4742;SDS011;24293;48.154;7.748;2024-02-15T12:33:11;6.60;;;4.10;;
4742;SDS011;24293;48.154;7.748;2024-02-15T12:35:44;7.73;;;3.90;;
4742;SDS011;24293;48.154;7.748;2024-02-15T12:38:13;9.47;;;4.30;;
4742;SDS011;24293;48.154;7.748;2024-02-15T12:40:41;8.17;;;4.00;;
4742;SDS011;24293;48.154;7.748;2024-02-15T12:43:08;9.33;;;4.03;;
4742;SDS011;24293;48.154;7.748;2024-02-15T12:45:35;12.43;;;4.40;;
4742;SDS011;24293;48.154;7.748;2024-02-15T12:48:03;9.77;;;4.10;;
4742;SDS011;24293;48.154;7.748;2024-02-15T12:50:30;9.83;;;4.00;;
4742;SDS011;24293;48.154;7.748;2024-02-15T12:52:56;7.23;;;4.00;;
4742;SDS011;24293;48.154;7.748;2024-02-15T12:55:28;13.63;;;4.70;;
4742;SDS011;24293;48.154;7.748;2024-02-15T12:57:59;7.57;;;3.87;;
4742;SDS011;24293;48.154;7.748;2024-02-15T13:00:28;15.37;;;5.27;;
4742;SDS011;24293;48.154;7.748;2024-02-15T13:02:57;8.93;;;3.60;;
4742;SDS011;24293;48.154;7.748;2024-02-15T13:05:24;11.33;;;4.60;;
4742;SDS011;24293;48.154;7.748;2024-02-15T13:07:51;11.40;;;4.23;;
4742;SDS011;24293;48.154;7.748;2024-02-15T13:10:20;9.03;;;4.37;;
4742;SDS011;24293;48.154;7.748;2024-02-15T13:12:50;9.67;;;4.47;;
4742;SDS011;24293;48.154;7.748;2024-02-15T13:15:17;9.80;;;3.80;;
4742;SDS011;24293;48.154;7.748;2024-02-15T13:17:45;12.97;;;3.97;;
4742;SDS011;24293;48.154;7.748;2024-02-15T13:20:12;13.20;;;3.80;;
4742;SDS011;24293;48.154;7.748;2024-02-15T13:22:39;10.70;;;4.57;;
4742;SDS011;24293;48.154;7.748;2024-02-15T13:25:05;8.00;;;3.70;;
4742;SDS011;24293;48.154;7.748;2024-02-15T13:27:33;13.17;;;4.90;;
4742;SDS011;24293;48.154;7.748;2024-02-15T13:30:03;12.40;;;4.73;;
4742;SDS011;24293;48.154;7.748;2024-02-15T13:32:33;9.93;;;4.90;;
4742;SDS011;24293;48.154;7.748;2024-02-15T13:35:00;9.37;;;4.47;;
4742;SDS011;24293;48.154;7.748;2024-02-15T13:37:32;10.33;;;5.20;;
4742;SDS011;24293;48.154;7.748;2024-02-15T13:39:59;10.60;;;4.63;;
4742;SDS011;24293;48.154;7.748;2024-02-15T13:42:25;9.67;;;4.07;;
4742;SDS011;24293;48.154;7.748;2024-02-15T13:44:52;7.40;;;4.30;;
4742;SDS011;24293;48.154;7.748;2024-02-15T13:47:20;7.90;;;4.20;;
4742;SDS011;24293;48.154;7.748;2024-02-15T13:49:46;9.37;;;4.97;;
4742;SDS011;24293;48.154;7.748;2024-02-15T13:52:14;8.83;;;3.93;;
4742;SDS011;24293;48.154;7.748;2024-02-15T13:54:42;9.93;;;4.50;;
4742;SDS011;24293;48.154;7.748;2024-02-15T13:57:08;11.10;;;4.50;;
4742;SDS011;24293;48.154;7.748;2024-02-15T13:59:36;10.33;;;5.10;;
4742;SDS011;24293;48.154;7.748;2024-02-15T14:02:03;8.97;;;4.10;;
4742;SDS011;24293;48.154;7.748;2024-02-15T14:04:31;9.83;;;5.07;;
4742;SDS011;24293;48.154;7.748;2024-02-15T14:06:59;9.77;;;4.77;;
4742;SDS011;24293;48.154;7.748;2024-02-15T14:09:27;9.33;;;4.17;;
4742;SDS011;24293;48.154;7.748;2024-02-15T14:11:53;11.60;;;4.47;;
4742;SDS011;24293;48.154;7.748;2024-02-15T14:14:20;10.40;;;4.40;;
4742;SDS011;24293;48.154;7.748;2024-02-15T14:16:47;8.43;;;4.17;;
4742;SDS011;24293;48.154;7.748;2024-02-15T14:19:13;10.93;;;4.90;;
4742;SDS011;24293;48.154;7.748;2024-02-15T14:21:41;7.60;;;3.80;;
4742;SDS011;24293;48.154;7.748;2024-02-15T14:24:10;10.93;;;4.40;;
4742;SDS011;24293;48.154;7.748;2024-02-15T14:26:36;9.83;;;4.60;;
4742;SDS011;24293;48.154;7.748;2024-02-15T14:29:03;7.97;;;4.43;;
4742;SDS011;24293;48.154;7.748;2024-02-15T14:31:30;8.33;;;4.40;;
4742;SDS011;24293;48.154;7.748;2024-02-15T14:34:14;10.37;;;4.57;;
4742;SDS011;24293;48.154;7.748;2024-02-15T14:36:44;11.53;;;4.07;;
4742;SDS011;24293;48.154;7.748;2024-02-15T14:39:12;11.20;;;4.10;;
4742;SDS011;24293;48.154;7.748;2024-02-15T14:41:39;9.97;;;4.20;;
4742;SDS011;24293;48.154;7.748;2024-02-15T14:44:06;14.53;;;4.13;;
4742;SDS011;24293;48.154;7.748;2024-02-15T14:46:34;14.73;;;5.67;;
4742;SDS011;24293;48.154;7.748;2024-02-15T14:49:01;13.90;;;5.00;;
4742;SDS011;24293;48.154;7.748;2024-02-15T14:51:28;10.80;;;4.93;;
4742;SDS011;24293;48.154;7.748;2024-02-15T14:53:57;25.10;;;5.40;;
4742;SDS011;24293;48.154;7.748;2024-02-15T14:56:24;17.40;;;6.97;;
4742;SDS011;24293;48.154;7.748;2024-02-15T14:58:50;15.00;;;3.60;;
4742;SDS011;24293;48.154;7.748;2024-02-15T15:01:18;29.47;;;4.00;;
4742;SDS011;24293;48.154;7.748;2024-02-15T15:03:52;19.13;;;4.40;;
4742;SDS011;24293;48.154;7.748;2024-02-15T15:06:20;10.30;;;3.30;;
4742;SDS011;24293;48.154;7.748;2024-02-15T15:09:05;9.67;;;4.67;;
4742;SDS011;24293;48.154;7.748;2024-02-15T15:11:49;20.33;;;4.07;;
4742;SDS011;24293;48.154;7.748;2024-02-15T15:14:33;20.07;;;7.33;;
4742;SDS011;24293;48.154;7.748;2024-02-15T15:17:00;10.33;;;3.60;;
4742;SDS011;24293;48.154;7.748;2024-02-15T15:19:26;8.63;;;2.70;;